createdAt,value
2023-05-12T00:02:14.377Z,14.29
2023-05-12T00:04:41.443Z,14.28
2023-05-12T00:07:08.076Z,14.27
2023-05-12T00:09:34.673Z,14.27
2023-05-12T00:12:02.297Z,14.24
2023-05-12T00:14:28.849Z,14.23
2023-05-12T00:16:55.400Z,14.23
2023-05-12T00:19:22.028Z,14.22
2023-05-12T00:21:48.523Z,14.22
2023-05-12T00:24:15.130Z,14.23
2023-05-12T00:26:41.608Z,14.22
2023-05-12T00:29:08.178Z,14.22
2023-05-12T00:31:34.754Z,14.21
2023-05-12T00:34:01.280Z,14.21
2023-05-12T00:36:28.084Z,14.21
2023-05-12T00:38:54.654Z,14.21
2023-05-12T00:41:21.125Z,14.20
2023-05-12T00:43:47.710Z,14.21
2023-05-12T00:46:14.469Z,14.19
2023-05-12T00:48:41.188Z,14.21
2023-05-12T00:51:08.645Z,14.21
2023-05-12T00:53:48.532Z,14.21
2023-05-12T00:56:18.899Z,14.20
2023-05-12T00:58:45.986Z,14.21
2023-05-12T01:01:12.934Z,14.22
2023-05-12T01:03:39.798Z,14.19
2023-05-12T01:06:13.547Z,14.20
2023-05-12T01:08:42.169Z,14.18
2023-05-12T01:11:08.859Z,14.19
2023-05-12T01:13:36.100Z,14.19
2023-05-12T01:16:04.234Z,14.19
2023-05-12T01:18:34.261Z,14.19
2023-05-12T01:21:01.995Z,14.18
2023-05-12T01:23:37.574Z,14.18
2023-05-12T01:26:08.593Z,14.18
2023-05-12T01:28:36.116Z,14.19
2023-05-12T01:31:05.456Z,14.19
2023-05-12T01:33:34.046Z,14.19
2023-05-12T01:36:00.566Z,14.20
2023-05-12T01:38:27.595Z,14.22
2023-05-12T01:40:54.079Z,14.22
2023-05-12T01:43:22.153Z,14.23
2023-05-12T01:45:48.960Z,14.23
2023-05-12T01:48:15.536Z,14.25
2023-05-12T01:50:42.506Z,14.27
2023-05-12T01:53:10.576Z,14.28
2023-05-12T01:55:37.072Z,14.28
2023-05-12T01:58:03.647Z,14.27
2023-05-12T02:00:30.149Z,14.28
2023-05-12T02:02:56.914Z,14.27
2023-05-12T02:05:23.562Z,14.27
2023-05-12T02:07:50.159Z,14.28
2023-05-12T02:10:16.898Z,14.29
2023-05-12T02:12:43.512Z,14.30
2023-05-12T02:15:10.236Z,14.30
2023-05-12T02:17:36.844Z,14.30
2023-05-12T02:20:05.349Z,14.32
2023-05-12T02:22:31.899Z,14.31
2023-05-12T02:24:58.391Z,14.30
2023-05-12T02:27:24.942Z,14.29
2023-05-12T02:29:51.405Z,14.29
2023-05-12T02:32:17.947Z,14.28
2023-05-12T02:34:44.414Z,14.31
2023-05-12T02:37:10.930Z,14.30
2023-05-12T02:39:37.392Z,14.29
2023-05-12T02:42:04.201Z,14.30
2023-05-12T02:44:30.684Z,14.30
2023-05-12T02:46:58.045Z,14.28
2023-05-12T02:49:24.630Z,14.28
2023-05-12T02:51:51.093Z,14.30
2023-05-12T02:54:17.623Z,14.31
2023-05-12T02:56:44.122Z,14.30
2023-05-12T02:59:10.801Z,14.31
2023-05-12T03:01:37.353Z,14.32
2023-05-12T03:04:03.923Z,14.33
2023-05-12T03:06:30.721Z,14.33
2023-05-12T03:08:57.237Z,14.33
2023-05-12T03:11:23.708Z,14.32
2023-05-12T03:13:50.166Z,14.31
2023-05-12T03:16:19.585Z,14.30
2023-05-12T03:18:46.424Z,14.29
2023-05-12T03:21:13.145Z,14.29
2023-05-12T03:23:39.664Z,14.29
2023-05-12T03:26:06.284Z,14.26
2023-05-12T03:28:33.210Z,14.26
2023-05-12T03:30:59.723Z,14.24
2023-05-12T03:33:26.251Z,14.23
2023-05-12T03:35:52.731Z,14.20
2023-05-12T03:38:19.189Z,14.19
2023-05-12T03:40:46.629Z,14.17
2023-05-12T03:43:13.149Z,14.16
2023-05-12T03:45:39.653Z,14.16
2023-05-12T03:48:07.116Z,14.19
2023-05-12T03:50:33.704Z,14.19
2023-05-12T03:53:01.135Z,14.18
2023-05-12T03:55:27.615Z,14.17
2023-05-12T03:57:54.084Z,14.16
2023-05-12T04:00:20.990Z,14.14
2023-05-12T04:02:47.706Z,14.13
2023-05-12T04:05:14.465Z,14.13
2023-05-12T04:07:40.944Z,14.11
2023-05-12T04:10:08.331Z,14.11
2023-05-12T04:12:34.825Z,14.11
2023-05-12T04:15:01.687Z,14.12
2023-05-12T04:17:28.180Z,14.12
2023-05-12T04:19:54.712Z,14.11
2023-05-12T04:22:22.772Z,14.11
2023-05-12T04:24:50.758Z,14.09
2023-05-12T04:27:17.268Z,14.09
2023-05-12T04:29:43.774Z,14.08
2023-05-12T04:32:10.438Z,14.09
2023-05-12T04:34:39.337Z,14.06
2023-05-12T04:37:05.838Z,14.06
2023-05-12T04:39:32.373Z,14.06
2023-05-12T04:42:01.357Z,14.06
2023-05-12T04:44:28.037Z,14.05
2023-05-12T04:46:56.388Z,14.06
2023-05-12T04:49:23.031Z,14.06
2023-05-12T04:51:49.547Z,14.03
2023-05-12T04:54:16.124Z,14.06
2023-05-12T04:56:42.604Z,14.05
2023-05-12T04:59:09.061Z,14.05
2023-05-12T05:01:35.724Z,14.04
2023-05-12T05:04:02.659Z,14.05
2023-05-12T05:06:29.162Z,14.03
2023-05-12T05:08:56.025Z,14.02
2023-05-12T05:11:23.118Z,13.98
2023-05-12T05:13:49.698Z,14.00
2023-05-12T05:16:16.292Z,13.99
2023-05-12T05:18:46.402Z,14.01
2023-05-12T05:21:16.237Z,14.01
2023-05-12T05:23:42.951Z,14.02
2023-05-12T05:26:09.894Z,14.01
2023-05-12T05:28:37.359Z,13.99
2023-05-12T05:31:03.925Z,13.91
2023-05-12T05:33:30.443Z,13.90
2023-05-12T05:35:57.233Z,13.91
2023-05-12T05:38:23.809Z,13.91
2023-05-12T05:40:53.758Z,13.94
2023-05-12T05:43:20.944Z,13.95
2023-05-12T05:45:49.751Z,13.95
2023-05-12T05:48:16.502Z,13.95
2023-05-12T05:50:43.259Z,13.95
2023-05-12T05:53:09.782Z,13.94
2023-05-12T05:55:36.271Z,13.95
2023-05-12T05:58:02.735Z,13.96
2023-05-12T06:00:29.498Z,13.96
2023-05-12T06:02:56.185Z,13.95
2023-05-12T06:05:22.982Z,13.95
2023-05-12T06:07:49.632Z,13.96
2023-05-12T06:10:16.124Z,13.96
2023-05-12T06:12:43.279Z,13.96
2023-05-12T06:15:10.437Z,13.96
2023-05-12T06:17:36.965Z,13.97
2023-05-12T06:20:05.283Z,13.98
2023-05-12T06:22:32.009Z,13.98
2023-05-12T06:24:58.521Z,13.98
2023-05-12T06:27:25.074Z,13.99
2023-05-12T06:29:51.999Z,14.01
2023-05-12T06:32:19.065Z,14.02
2023-05-12T06:34:45.706Z,14.02
2023-05-12T06:37:12.301Z,14.02
2023-05-12T06:39:38.830Z,13.98
2023-05-12T06:42:05.561Z,14.02
2023-05-12T06:44:32.050Z,14.03
2023-05-12T06:46:59.210Z,14.01
2023-05-12T06:49:25.770Z,14.02
2023-05-12T06:51:52.266Z,14.03
2023-05-12T06:54:18.790Z,14.03
2023-05-12T06:56:45.358Z,14.03
2023-05-12T06:59:12.611Z,14.02
2023-05-12T07:01:39.293Z,14.04
2023-05-12T07:04:06.002Z,14.05
2023-05-12T07:06:34.458Z,14.07
2023-05-12T07:09:01.062Z,14.07
2023-05-12T07:11:27.537Z,14.07
2023-05-12T07:13:54.104Z,14.10
2023-05-12T07:16:20.732Z,14.11
2023-05-12T07:18:47.408Z,14.13
2023-05-12T07:21:14.077Z,14.14
2023-05-12T07:23:40.778Z,14.14
2023-05-12T07:26:07.790Z,14.14
2023-05-12T07:28:36.561Z,14.14
2023-05-12T07:31:04.214Z,14.19
2023-05-12T07:33:31.424Z,14.18
2023-05-12T07:35:58.227Z,14.21
2023-05-12T07:38:24.893Z,14.22
2023-05-12T07:40:51.477Z,14.24
2023-05-12T07:43:18.025Z,14.25
2023-05-12T07:45:45.537Z,14.26
2023-05-12T07:48:13.378Z,14.26
2023-05-12T07:50:40.248Z,14.28
2023-05-12T07:53:06.967Z,14.29
2023-05-12T07:55:33.785Z,14.30
2023-05-12T07:58:00.570Z,14.32
2023-05-12T08:00:27.102Z,14.33
2023-05-12T08:02:54.084Z,14.32
2023-05-12T08:05:21.259Z,14.34
2023-05-12T08:07:47.942Z,14.31
2023-05-12T08:10:15.683Z,14.31
2023-05-12T08:12:42.374Z,14.34
2023-05-12T08:15:09.774Z,14.37
2023-05-12T08:17:36.448Z,14.39
2023-05-12T08:20:06.863Z,14.41
2023-05-12T08:22:33.445Z,14.42
2023-05-12T08:24:59.994Z,14.46
2023-05-12T08:27:26.610Z,14.48
2023-05-12T08:29:53.171Z,14.50
2023-05-12T08:32:19.841Z,14.50
2023-05-12T08:34:46.629Z,14.52
2023-05-12T08:37:13.459Z,14.53
2023-05-12T08:39:40.448Z,14.52
2023-05-12T08:42:30.069Z,14.53
2023-05-12T08:44:57.237Z,14.53
2023-05-12T08:47:25.754Z,14.51
2023-05-12T08:50:00.927Z,14.53
2023-05-12T08:52:33.679Z,14.54
2023-05-12T08:55:02.447Z,14.56
2023-05-12T08:57:30.120Z,14.58
2023-05-12T08:59:59.350Z,14.60
2023-05-12T09:02:37.663Z,14.62
2023-05-12T09:05:08.764Z,14.63
2023-05-12T09:07:38.393Z,14.60
2023-05-12T09:10:08.510Z,14.66
2023-05-12T09:12:37.875Z,14.68
2023-05-12T09:15:11.766Z,14.70
2023-05-12T09:17:38.401Z,14.72
2023-05-12T09:20:09.819Z,14.73
2023-05-12T09:22:39.759Z,14.74
2023-05-12T09:25:19.717Z,14.74
2023-05-12T09:27:48.028Z,14.74
2023-05-12T09:30:15.564Z,14.75
2023-05-12T09:32:42.177Z,14.76
2023-05-12T09:35:13.027Z,14.76
2023-05-12T09:37:43.231Z,14.77
2023-05-12T09:40:11.508Z,14.77
2023-05-12T09:42:38.451Z,14.80
2023-05-12T09:45:06.836Z,14.81
2023-05-12T09:47:38.105Z,14.82
2023-05-12T09:50:07.149Z,14.83
2023-05-12T09:52:38.871Z,14.85
2023-05-12T09:55:06.793Z,14.85
2023-05-12T09:57:39.386Z,14.85
2023-05-12T10:00:16.959Z,14.86
2023-05-12T10:02:55.782Z,14.87
2023-05-12T10:05:22.828Z,14.87
2023-05-12T10:07:51.417Z,14.88
2023-05-12T10:10:20.769Z,14.88
2023-05-12T10:12:48.943Z,14.89
2023-05-12T10:15:17.463Z,14.90
2023-05-12T10:17:44.462Z,14.90
2023-05-12T10:20:12.564Z,14.90
2023-05-12T10:22:40.655Z,14.91
2023-05-12T10:25:10.968Z,14.91
2023-05-12T10:27:38.069Z,14.93
2023-05-12T10:30:06.253Z,14.93
2023-05-12T10:32:33.460Z,14.93
2023-05-12T10:35:10.470Z,14.95
2023-05-12T10:37:37.682Z,14.96
2023-05-12T10:40:05.050Z,14.97
2023-05-12T10:42:40.552Z,14.99
2023-05-12T10:45:27.815Z,14.98
2023-05-12T10:48:06.930Z,14.98
2023-05-12T10:50:36.284Z,14.99
2023-05-12T10:53:03.059Z,14.98
2023-05-12T10:55:35.422Z,14.96
2023-05-12T10:58:20.635Z,14.97
2023-05-12T11:00:50.919Z,14.99
2023-05-12T11:03:25.402Z,15.00
2023-05-12T11:06:04.931Z,15.00
2023-05-12T11:08:32.648Z,14.98
2023-05-12T11:10:59.461Z,15.00
2023-05-12T11:13:26.292Z,15.00
2023-05-12T11:15:52.913Z,15.00
2023-05-12T11:18:23.223Z,14.99
2023-05-12T11:20:50.930Z,15.00
2023-05-12T11:23:28.933Z,14.99
2023-05-12T11:25:56.463Z,14.99
2023-05-12T11:28:23.074Z,14.97
2023-05-12T11:30:55.286Z,14.96
2023-05-12T11:33:23.097Z,14.95
2023-05-12T11:35:50.469Z,14.95
2023-05-12T11:38:18.421Z,14.96
2023-05-12T11:40:45.088Z,14.94
2023-05-12T11:43:13.126Z,14.93
2023-05-12T11:45:39.672Z,14.95
2023-05-12T11:48:12.060Z,14.96
2023-05-12T11:50:43.363Z,14.95
2023-05-12T11:53:12.344Z,14.96
2023-05-12T11:55:51.130Z,14.95
2023-05-12T11:58:22.534Z,14.95
2023-05-12T12:00:49.149Z,14.95
2023-05-12T12:03:16.740Z,14.96
2023-05-12T12:06:00.965Z,14.96
2023-05-12T12:08:27.654Z,14.95
2023-05-12T12:10:54.247Z,14.96
2023-05-12T12:13:25.327Z,14.96
2023-05-12T12:15:52.654Z,14.96
2023-05-12T12:18:19.435Z,14.97
2023-05-12T12:20:46.851Z,14.98
2023-05-12T12:23:13.392Z,15.00
2023-05-12T12:25:39.902Z,15.01
2023-05-12T12:28:06.414Z,15.04
2023-05-12T12:30:33.947Z,15.07
2023-05-12T12:33:00.725Z,15.10
2023-05-12T12:35:27.273Z,15.10
2023-05-12T12:37:53.841Z,15.11
2023-05-12T12:40:20.463Z,15.13
2023-05-12T12:42:47.236Z,15.12
2023-05-12T12:45:13.823Z,15.12
2023-05-12T12:47:40.457Z,15.12
2023-05-12T12:50:09.625Z,15.12
2023-05-12T12:52:37.966Z,15.14
2023-05-12T12:55:06.238Z,15.07
2023-05-12T12:57:32.746Z,15.05
2023-05-12T12:59:59.289Z,15.07
2023-05-12T13:02:25.915Z,15.15
2023-05-12T13:04:52.493Z,15.21
2023-05-12T13:07:19.026Z,15.25
2023-05-12T13:09:45.499Z,15.27
2023-05-12T13:12:12.020Z,15.39
2023-05-12T13:14:38.628Z,15.43
2023-05-12T13:17:05.294Z,15.48
2023-05-12T13:19:31.833Z,15.53
2023-05-12T13:21:58.315Z,15.54
2023-05-12T13:24:25.060Z,15.55
2023-05-12T13:26:51.673Z,15.54
2023-05-12T13:29:18.594Z,15.53
2023-05-12T13:31:46.426Z,15.53
2023-05-12T13:34:13.877Z,15.52
2023-05-12T13:36:40.947Z,15.52
2023-05-12T13:39:10.092Z,15.51
2023-05-12T13:41:37.162Z,15.51
2023-05-12T13:44:03.835Z,15.52
2023-05-12T13:46:30.396Z,15.50
2023-05-12T13:48:56.953Z,15.48
2023-05-12T13:51:23.927Z,15.46
2023-05-12T13:53:50.670Z,15.46
2023-05-12T13:56:17.429Z,15.45
2023-05-12T13:58:44.333Z,15.43
2023-05-12T14:01:11.718Z,15.41
2023-05-12T14:03:38.228Z,15.41
2023-05-12T14:06:05.166Z,15.39
2023-05-12T14:08:31.701Z,15.39
2023-05-12T14:10:58.769Z,15.38
2023-05-12T14:13:26.208Z,15.37
2023-05-12T14:15:53.896Z,15.37
2023-05-12T14:18:20.940Z,15.38
2023-05-12T14:20:47.787Z,15.37
2023-05-12T14:23:14.389Z,15.37
2023-05-12T14:25:41.133Z,15.38
2023-05-12T14:28:07.822Z,15.39
2023-05-12T14:30:35.320Z,15.39
2023-05-12T14:33:02.633Z,15.39
2023-05-12T14:35:29.533Z,15.39
2023-05-12T14:37:56.698Z,15.41
2023-05-12T14:40:23.450Z,15.39
2023-05-12T14:42:50.022Z,15.42
2023-05-12T14:45:16.663Z,15.43
2023-05-12T14:47:43.216Z,15.45
2023-05-12T14:50:10.492Z,15.47
2023-05-12T14:52:38.597Z,15.48
2023-05-12T14:55:12.493Z,15.48
2023-05-12T14:57:39.493Z,15.48
2023-05-12T15:00:11.655Z,15.49
2023-05-12T15:02:40.768Z,15.49
2023-05-12T15:05:08.752Z,15.49
2023-05-12T15:07:35.816Z,15.49
2023-05-12T15:10:02.451Z,15.49
2023-05-12T15:12:29.007Z,15.49
2023-05-12T15:15:01.073Z,15.50
2023-05-12T15:17:28.469Z,15.49
2023-05-12T15:19:55.831Z,15.49
2023-05-12T15:22:22.566Z,15.50
2023-05-12T15:24:49.093Z,15.49
2023-05-12T15:27:15.626Z,15.49
2023-05-12T15:29:42.173Z,15.49
2023-05-12T15:32:08.688Z,15.50
2023-05-12T15:34:35.400Z,15.49
2023-05-12T15:37:01.977Z,15.49
2023-05-12T15:39:28.543Z,15.49
2023-05-12T15:41:55.092Z,15.50
2023-05-12T15:44:21.613Z,15.49
2023-05-12T15:46:48.265Z,15.49
2023-05-12T15:49:14.782Z,15.50
2023-05-12T15:51:41.312Z,15.50
2023-05-12T15:54:09.481Z,15.49
2023-05-12T15:56:36.531Z,15.49
2023-05-12T15:59:05.161Z,15.50
2023-05-12T16:01:31.951Z,15.50
2023-05-12T16:03:58.676Z,15.49
2023-05-12T16:06:25.572Z,15.49
2023-05-12T16:08:53.188Z,15.49
2023-05-12T16:11:19.633Z,15.48
2023-05-12T16:13:46.180Z,15.49
2023-05-12T16:16:12.774Z,15.48
2023-05-12T16:18:40.118Z,15.48
2023-05-12T16:21:07.166Z,15.48
2023-05-12T16:23:33.651Z,15.49
2023-05-12T16:26:00.181Z,15.47
2023-05-12T16:28:26.993Z,15.48
2023-05-12T16:30:53.454Z,15.48
2023-05-12T16:33:19.941Z,15.48
2023-05-12T16:35:46.610Z,15.47
2023-05-12T16:38:13.497Z,15.47
2023-05-12T16:40:39.989Z,15.48
2023-05-12T16:43:06.502Z,15.48
2023-05-12T16:45:33.030Z,15.48
2023-05-12T16:47:59.889Z,15.48
2023-05-12T16:50:26.485Z,15.48
2023-05-12T16:52:53.726Z,15.50
2023-05-12T16:55:20.785Z,15.49
2023-05-12T16:57:47.598Z,15.49
2023-05-12T17:00:14.877Z,15.50
2023-05-12T17:02:41.550Z,15.50
2023-05-12T17:05:08.405Z,15.50
2023-05-12T17:07:37.949Z,15.49
2023-05-12T17:10:04.706Z,15.48
2023-05-12T17:12:31.435Z,15.49
2023-05-12T17:15:06.958Z,15.49
2023-05-12T17:17:34.752Z,15.49
2023-05-12T17:20:01.627Z,15.48
2023-05-12T17:22:28.322Z,15.47
2023-05-12T17:24:54.826Z,15.46
2023-05-12T17:27:21.562Z,15.45
2023-05-12T17:29:48.143Z,15.43
2023-05-12T17:32:14.690Z,15.41
2023-05-12T17:34:41.351Z,15.39
2023-05-12T17:37:07.849Z,15.37
2023-05-12T17:39:34.368Z,15.36
2023-05-12T17:42:00.893Z,15.33
2023-05-12T17:44:27.512Z,15.33
2023-05-12T17:46:54.268Z,15.31
2023-05-12T17:49:20.791Z,15.27
2023-05-12T17:51:49.345Z,15.25
2023-05-12T17:54:15.846Z,15.26
2023-05-12T17:56:42.709Z,15.25
2023-05-12T17:59:09.190Z,15.24
2023-05-12T18:01:36.438Z,15.25
2023-05-12T18:04:03.125Z,15.23
2023-05-12T18:06:30.413Z,15.23
2023-05-12T18:08:56.995Z,15.23
2023-05-12T18:11:23.591Z,15.22
2023-05-12T18:13:51.899Z,15.20
2023-05-12T18:16:28.032Z,15.20
2023-05-12T18:18:55.864Z,15.19
2023-05-12T18:21:22.443Z,15.18
2023-05-12T18:23:48.915Z,15.17
2023-05-12T18:26:15.432Z,15.18
2023-05-12T18:28:41.940Z,15.18
2023-05-12T18:31:15.834Z,15.20
2023-05-12T18:33:45.800Z,15.19
2023-05-12T18:36:12.927Z,15.20
2023-05-12T18:38:39.520Z,15.20
2023-05-12T18:41:06.121Z,15.20
2023-05-12T18:43:32.754Z,15.18
2023-05-12T18:45:59.309Z,15.18
2023-05-12T18:48:25.919Z,15.17
2023-05-12T18:50:52.504Z,15.14
2023-05-12T18:53:19.137Z,15.13
2023-05-12T18:55:45.644Z,15.13
2023-05-12T18:58:12.170Z,15.12
2023-05-12T19:00:38.783Z,15.12
2023-05-12T19:03:05.308Z,15.14
2023-05-12T19:05:32.005Z,15.15
2023-05-12T19:07:58.591Z,15.16
2023-05-12T19:10:25.180Z,15.15
2023-05-12T19:12:51.748Z,15.15
2023-05-12T19:15:18.578Z,15.14
2023-05-12T19:17:45.323Z,15.11
2023-05-12T19:20:12.036Z,15.11
2023-05-12T19:22:38.690Z,15.11
2023-05-12T19:25:06.479Z,15.11
2023-05-12T19:27:33.033Z,15.09
2023-05-12T19:30:02.207Z,15.09
2023-05-12T19:32:28.932Z,15.10
2023-05-12T19:34:56.056Z,15.10
2023-05-12T19:37:22.950Z,15.09
2023-05-12T19:39:50.147Z,15.10
2023-05-12T19:42:16.633Z,15.10
2023-05-12T19:44:43.226Z,15.10
2023-05-12T19:47:09.839Z,15.09
2023-05-12T19:49:36.423Z,15.08
2023-05-12T19:52:04.280Z,15.10
2023-05-12T19:54:30.810Z,15.08
2023-05-12T19:56:57.667Z,15.09
2023-05-12T19:59:24.618Z,15.10
2023-05-12T20:01:51.465Z,15.08
2023-05-12T20:04:18.161Z,15.07
2023-05-12T20:06:44.679Z,15.07
2023-05-12T20:09:11.231Z,15.08
2023-05-12T20:11:37.828Z,15.07
2023-05-12T20:14:04.313Z,15.07
2023-05-12T20:16:31.008Z,15.08
2023-05-12T20:18:57.591Z,15.08
2023-05-12T20:21:24.188Z,15.09
2023-05-12T20:23:50.734Z,15.08
2023-05-12T20:26:17.268Z,15.07
2023-05-12T20:28:43.825Z,15.07
2023-05-12T20:31:10.389Z,15.06
2023-05-12T20:33:36.911Z,15.05
2023-05-12T20:36:03.872Z,15.05
2023-05-12T20:38:30.414Z,15.04
2023-05-12T20:40:56.925Z,15.04
2023-05-12T20:43:23.451Z,15.03
2023-05-12T20:45:49.971Z,15.03
2023-05-12T20:48:16.510Z,15.03
2023-05-12T20:50:43.746Z,15.03
2023-05-12T20:53:10.319Z,15.02
2023-05-12T20:55:36.890Z,15.03
2023-05-12T20:58:03.505Z,15.02
2023-05-12T21:00:30.022Z,15.02
2023-05-12T21:02:58.044Z,15.01
2023-05-12T21:05:24.700Z,15.00
2023-05-12T21:07:51.410Z,15.00
2023-05-12T21:10:18.723Z,15.00
2023-05-12T21:12:45.378Z,15.01
2023-05-12T21:15:12.054Z,15.00
2023-05-12T21:17:39.535Z,15.01
2023-05-12T21:20:10.458Z,15.00
2023-05-12T21:22:38.033Z,15.00
2023-05-12T21:25:05.149Z,15.01
2023-05-12T21:27:31.785Z,14.99
2023-05-12T21:29:58.347Z,14.98
2023-05-12T21:32:25.010Z,14.98
2023-05-12T21:34:51.624Z,14.98
2023-05-12T21:37:18.128Z,14.98
2023-05-12T21:39:44.600Z,14.98
2023-05-12T21:42:11.096Z,14.98
2023-05-12T21:44:37.609Z,14.99
2023-05-12T21:47:04.398Z,14.99
2023-05-12T21:49:31.045Z,14.97
2023-05-12T21:51:57.533Z,14.97
2023-05-12T21:54:24.162Z,14.98
2023-05-12T21:56:50.783Z,14.98
2023-05-12T21:59:17.902Z,14.97
2023-05-12T22:01:44.392Z,14.97
2023-05-12T22:04:11.024Z,14.97
2023-05-12T22:06:37.647Z,14.96
2023-05-12T22:09:05.293Z,14.96
2023-05-12T22:11:31.780Z,14.96
2023-05-12T22:13:58.271Z,14.97
2023-05-12T22:16:31.183Z,14.97
2023-05-12T22:19:05.462Z,14.97
2023-05-12T22:21:32.406Z,14.98
2023-05-12T22:23:58.867Z,14.97
2023-05-12T22:26:25.483Z,14.97
2023-05-12T22:28:51.942Z,14.96
2023-05-12T22:31:18.548Z,14.97
2023-05-12T22:33:45.125Z,14.96
2023-05-12T22:36:11.626Z,14.96
2023-05-12T22:38:38.176Z,14.97
2023-05-12T22:41:04.750Z,14.97
2023-05-12T22:43:31.222Z,14.95
2023-05-12T22:45:57.709Z,14.95
2023-05-12T22:48:24.250Z,14.95
2023-05-12T22:50:54.097Z,14.94
2023-05-12T22:53:20.719Z,14.94
2023-05-12T22:55:47.258Z,14.93
2023-05-12T22:58:13.920Z,14.94
2023-05-12T23:00:40.580Z,14.93
2023-05-12T23:03:07.429Z,14.91
2023-05-12T23:05:34.038Z,14.91
2023-05-12T23:08:02.822Z,14.92
2023-05-12T23:10:29.359Z,14.92
2023-05-12T23:12:55.899Z,14.92
2023-05-12T23:15:22.403Z,14.92
2023-05-12T23:17:48.972Z,14.93
2023-05-12T23:20:15.488Z,14.92
2023-05-12T23:22:42.128Z,14.91
2023-05-12T23:25:09.267Z,14.91
2023-05-12T23:27:36.949Z,14.91
2023-05-12T23:30:03.458Z,14.89
2023-05-12T23:32:30.106Z,14.90
2023-05-12T23:34:56.713Z,14.89
2023-05-12T23:37:24.569Z,14.88
2023-05-12T23:39:51.337Z,14.88
2023-05-12T23:42:17.851Z,14.88
2023-05-12T23:44:44.387Z,14.88
2023-05-12T23:47:10.872Z,14.87
2023-05-12T23:49:37.449Z,14.87
2023-05-12T23:52:04.173Z,14.87
2023-05-12T23:54:30.894Z,14.87
2023-05-12T23:56:57.462Z,14.86
2023-05-12T23:59:23.965Z,14.86
